Time;durP1;ratioP1;P1;durP2;ratioP2;P2;SDS_P1;SDS_P2;PMS_P1;PMS_P2;Temp;Humidity;BMP_temperature;BMP_pressure;BME280_temperature;BME280_humidity;BME280_pressure;Samples;Min_cycle;Max_cycle;Signal;HPM_P1;HPM_P2
2022/04/19 00:01:00;;;;;;;0.00;0.00;;;;;;;12.06;100.00;100704.44;2619136;47;20145;-62
2022/04/19 00:03:30;;;;;;;0.37;0.37;;;;;;;12.20;100.00;100699.13;2618624;54;20164;-63
2022/04/19 00:06:03;;;;;;;0.00;0.00;;;;;;;12.14;100.00;100696.94;2618808;54;20167;-63
2022/04/19 00:08:34;;;;;;;0.27;0.27;;;;;;;12.56;100.00;100698.41;2618964;54;20666;-63
2022/04/19 00:11:05;;;;;;;0.20;0.20;;;;;;;12.25;100.00;100693.63;2619681;54;20152;-63
2022/04/19 00:13:35;;;;;;;0.20;0.20;;;;;;;12.33;100.00;100689.56;2620048;54;20788;-63
2022/04/19 00:16:06;;;;;;;0.00;0.00;;;;;;;12.06;100.00;100692.25;2619322;54;20146;-63
2022/04/19 00:18:36;;;;;;;0.13;0.13;;;;;;;11.75;100.00;100690.03;2619489;54;20149;-64
2022/04/19 00:21:09;;;;;;;0.00;0.00;;;;;;;12.30;100.00;100692.41;2619279;54;20700;-63
2022/04/19 00:23:39;;;;;;;0.00;0.00;;;;;;;12.54;100.00;100690.72;2618946;54;20153;-63
2022/04/19 00:26:10;;;;;;;0.00;0.00;;;;;;;12.42;100.00;100696.75;2619283;39;20559;-63
2022/04/19 00:28:41;;;;;;;0.00;0.00;;;;;;;12.37;100.00;100683.22;2618791;54;20150;-64
2022/04/19 00:31:12;;;;;;;0.00;0.00;;;;;;;12.35;100.00;100690.31;2618706;54;20151;-63
2022/04/19 00:33:44;;;;;;;0.00;0.00;;;;;;;12.35;100.00;100679.06;2619061;54;20192;-63
2022/04/19 00:36:19;;;;;;;0.00;0.00;;;;;;;12.02;100.00;100683.00;2618602;54;20141;-63
2022/04/19 00:38:49;;;;;;;0.33;0.33;;;;;;;12.28;100.00;100683.84;2619034;54;20167;-63
2022/04/19 00:41:19;;;;;;;0.10;0.10;;;;;;;12.74;100.00;100685.91;2618403;54;20134;-64
2022/04/19 00:43:49;;;;;;;0.27;0.20;;;;;;;12.41;100.00;100676.88;2618848;47;20138;-63
2022/04/19 00:46:20;;;;;;;0.10;0.10;;;;;;;12.58;100.00;100680.94;2618600;54;20138;-63
2022/04/19 00:48:52;;;;;;;0.10;0.10;;;;;;;12.41;100.00;100676.88;2618723;54;20137;-63
2022/04/19 00:51:27;;;;;;;0.00;0.00;;;;;;;12.84;100.00;100679.97;2618670;54;20256;-64
2022/04/19 00:53:57;;;;;;;0.10;0.10;;;;;;;12.47;100.00;100680.84;2618675;54;20153;-65
2022/04/19 00:56:29;;;;;;;0.20;0.20;;;;;;;11.81;100.00;100668.81;2619334;54;20145;-63
2022/04/19 00:58:59;;;;;;;0.00;0.00;;;;;;;10.92;100.00;100690.09;2618904;54;20152;-63
2022/04/19 01:01:29;;;;;;;0.27;0.27;;;;;;;11.27;100.00;100689.56;2618543;54;20146;-64
2022/04/19 01:04:00;;;;;;;0.00;0.00;;;;;;;11.41;100.00;100693.91;2617799;54;20160;-63
2022/04/19 01:06:33;;;;;;;0.00;0.00;;;;;;;11.96;100.00;100690.34;2617854;54;20142;-64
2022/04/19 01:09:04;;;;;;;0.00;0.00;;;;;;;12.18;100.00;100701.00;2618150;49;20701;-64
2022/04/19 01:14:17;;;;;;;0.00;0.00;;;;;;;12.04;100.00;100694.13;2618114;54;20725;-64
2022/04/19 05:29:35;;;;;;;1.87;1.63;;;;;;;6.65;100.00;100817.56;2619243;46;20316;-65
2022/04/19 05:32:06;;;;;;;1.17;1.00;;;;;;;7.70;100.00;100821.50;2620040;54;20149;-64
2022/04/19 05:34:36;;;;;;;1.90;1.80;;;;;;;7.16;100.00;100816.22;2619673;47;20153;-64
2022/04/19 05:37:07;;;;;;;0.67;0.20;;;;;;;8.70;100.00;100819.22;2619760;54;20145;-64
2022/04/19 05:39:37;;;;;;;0.70;0.70;;;;;;;8.28;100.00;100813.53;2623161;47;20241;-64
2022/04/19 05:42:08;;;;;;;1.90;0.33;;;;;;;8.68;100.00;100815.84;2620311;47;20232;-64
2022/04/19 05:44:41;;;;;;;0.77;0.77;;;;;;;8.09;100.00;100815.34;2620117;47;20689;-65
2022/04/19 05:47:11;;;;;;;4.00;1.77;;;;;;;7.41;100.00;100833.13;2619754;54;20209;-63
2022/04/19 05:49:41;;;;;;;0.50;0.50;;;;;;;7.16;100.00;100834.28;2620432;54;20328;-65
2022/04/19 05:52:13;;;;;;;0.17;0.17;;;;;;;7.51;100.00;100818.06;2619016;54;20688;-65
2022/04/19 05:54:43;;;;;;;0.77;0.77;;;;;;;7.52;100.00;100817.16;2617998;54;20216;-65
2022/04/19 05:57:13;;;;;;;2.47;1.20;;;;;;;8.24;100.00;100804.25;2618826;54;20155;-65
2022/04/19 05:59:46;;;;;;;2.57;0.50;;;;;;;8.30;100.00;100814.34;2619388;54;20142;-64
2022/04/19 06:04:59;;;;;;;1.47;0.87;;;;;;;7.60;100.00;100827.13;2620958;54;20157;-64
2022/04/19 06:07:32;;;;;;;0.10;0.10;;;;;;;7.59;100.00;100834.03;2620471;54;20152;-64
2022/04/19 06:10:03;;;;;;;4.93;0.83;;;;;;;7.30;100.00;100830.16;2620433;54;20141;-64
2022/04/19 06:12:33;;;;;;;2.00;1.20;;;;;;;7.32;100.00;100835.28;2619509;47;20168;-64
2022/04/19 06:15:08;;;;;;;0.47;0.47;;;;;;;7.24;100.00;100832.19;2619473;47;20138;-64
2022/04/19 06:17:40;;;;;;;1.90;0.77;;;;;;;7.21;100.00;100824.59;2620143;54;20141;-64
2022/04/19 06:20:12;;;;;;;1.53;0.87;;;;;;;8.00;100.00;100835.53;2619741;47;20145;-64
2022/04/19 06:22:44;;;;;;;0.53;0.53;;;;;;;7.69;100.00;100843.03;2624138;47;20134;-64
2022/04/19 06:25:15;;;;;;;2.20;1.47;;;;;;;7.38;100.00;100827.28;2621193;47;20140;-64
2022/04/19 06:27:45;;;;;;;1.90;0.57;;;;;;;8.10;100.00;100854.03;2621561;47;20134;-63
2022/04/19 06:30:25;;;;;;;3.23;1.90;;;;;;;7.58;100.00;100850.44;2622334;39;20549;-64
2022/04/19 06:32:55;;;;;;;0.77;0.63;;;;;;;7.61;100.00;100857.22;2620364;47;20721;-65
2022/04/19 06:35:25;;;;;;;1.60;1.23;;;;;;;7.47;100.00;100834.59;2620313;54;20148;-64
2022/04/19 06:37:55;;;;;;;0.73;0.73;;;;;;;8.87;100.00;100846.78;2619817;47;20142;-65
2022/04/19 06:40:26;;;;;;;0.20;0.20;;;;;;;8.70;100.00;100852.84;2621162;39;20540;-64
2022/04/19 06:42:57;;;;;;;1.10;0.97;;;;;;;8.59;100.00;100833.56;2620310;54;20142;-65
2022/04/19 06:45:30;;;;;;;2.07;1.93;;;;;;;7.53;100.00;100839.50;2621453;39;20500;-64
2022/04/19 06:48:01;;;;;;;1.60;1.43;;;;;;;7.31;100.00;100846.50;2621617;54;20156;-65
2022/04/19 06:50:32;;;;;;;0.40;0.40;;;;;;;8.50;100.00;100827.13;2620459;47;20141;-65
2022/04/19 06:53:02;;;;;;;0.63;0.60;;;;;;;9.16;100.00;100860.84;2620264;47;20229;-64
2022/04/19 06:55:32;;;;;;;0.73;0.70;;;;;;;9.31;100.00;100852.28;2620576;39;20543;-65
2022/04/19 06:58:02;;;;;;;2.30;1.30;;;;;;;8.60;100.00;100851.59;2620226;54;20153;-64
2022/04/19 07:00:35;;;;;;;1.00;0.80;;;;;;;8.72;100.00;100858.75;2620431;54;20249;-64
2022/04/19 07:03:06;;;;;;;0.13;0.13;;;;;;;9.81;100.00;100863.38;2620435;54;20145;-64
2022/04/19 07:05:36;;;;;;;3.90;0.87;;;;;;;8.50;100.00;100868.50;2620863;47;20142;-64
2022/04/19 07:08:07;;;;;;;3.40;2.10;;;;;;;8.87;100.00;100860.56;2620764;54;20153;-65
2022/04/19 07:10:37;;;;;;;0.93;0.93;;;;;;;9.96;100.00;100873.81;2621054;47;20181;-65
2022/04/19 07:13:08;;;;;;;1.80;0.80;;;;;;;10.04;100.00;100869.06;2620814;54;20133;-65
2022/04/19 07:15:41;;;;;;;0.60;0.60;;;;;;;10.00;100.00;100875.31;2621084;54;20253;-65
2022/04/19 07:18:11;;;;;;;0.87;0.50;;;;;;;10.15;100.00;100871.94;2621428;54;20146;-65
2022/04/19 07:28:48;;;;;;;1.33;0.93;;;;;;;9.96;100.00;100885.03;2620842;54;20189;-63
2022/04/19 07:31:21;;;;;;;0.00;0.00;;;;;;;10.74;100.00;100876.31;2620150;54;20130;-64
2022/04/19 07:33:52;;;;;;;0.73;0.73;;;;;;;10.09;100.00;100880.00;2620319;54;20149;-65
2022/04/19 07:36:22;;;;;;;0.40;0.40;;;;;;;9.45;100.00;100886.06;2620791;54;20687;-65
2022/04/19 07:38:52;;;;;;;0.70;0.70;;;;;;;9.46;100.00;100882.56;2622523;47;20191;-64
2022/04/19 07:41:23;;;;;;;0.30;0.30;;;;;;;9.94;100.00;100883.44;2622425;54;20134;-64
2022/04/19 07:43:53;;;;;;;2.40;1.20;;;;;;;9.96;100.00;100887.63;2621778;39;20547;-64
2022/04/19 07:46:26;;;;;;;0.10;0.10;;;;;;;10.33;100.00;100876.91;2620692;54;20140;-64
2022/04/19 07:48:56;;;;;;;0.10;0.10;;;;;;;10.64;100.00;100876.00;2620144;54;20245;-64
2022/04/19 07:51:27;;;;;;;0.63;0.63;;;;;;;10.24;100.00;100886.97;2620275;39;20561;-65
2022/04/19 07:53:58;;;;;;;1.50;1.40;;;;;;;9.71;100.00;100887.25;2619755;47;20141;-64
2022/04/19 07:56:28;;;;;;;0.83;0.77;;;;;;;10.28;100.00;100875.50;2619757;54;20141;-64
2022/04/19 07:58:58;;;;;;;0.10;0.10;;;;;;;10.72;100.00;100872.97;2620834;39;20615;-64
2022/04/19 08:01:37;;;;;;;0.33;0.33;;;;;;;10.47;100.00;100889.09;2621044;54;20140;-65
2022/04/19 08:04:07;;;;;;;0.27;0.27;;;;;;;10.47;100.00;100891.69;2619545;54;20161;-68
2022/04/19 08:06:37;;;;;;;1.50;1.03;;;;;;;9.86;100.00;100894.22;2619653;54;20233;-65
2022/04/19 08:09:08;;;;;;;1.17;0.80;;;;;;;10.24;100.00;100889.56;2619183;54;20150;-64
2022/04/19 08:11:38;;;;;;;1.03;0.93;;;;;;;10.22;100.00;100891.41;2619485;54;20137;-64
2022/04/19 08:14:09;;;;;;;0.80;0.77;;;;;;;10.83;100.00;100885.34;2619170;54;20142;-64
2022/04/19 08:16:42;;;;;;;2.30;0.50;;;;;;;10.31;100.00;100890.91;2619361;54;20213;-65
2022/04/19 08:19:12;;;;;;;0.10;0.10;;;;;;;10.46;100.00;100881.41;2619693;54;20150;-66
2022/04/19 08:21:42;;;;;;;0.17;0.17;;;;;;;10.77;100.00;100883.94;2618604;54;20144;-66
2022/04/19 08:24:12;;;;;;;0.60;0.60;;;;;;;10.39;100.00;100896.47;2619490;54;20156;-66
2022/04/19 08:26:43;;;;;;;0.00;0.00;;;;;;;10.41;100.00;100892.06;2619491;54;20163;-64
2022/04/19 08:29:13;;;;;;;0.30;0.00;;;;;;;11.55;100.00;100882.72;2618675;54;20192;-65
2022/04/19 08:31:46;;;;;;;2.00;0.50;;;;;;;11.32;100.00;100886.69;2619526;39;20552;-65
2022/04/19 08:34:17;;;;;;;1.93;0.93;;;;;;;9.47;100.00;100893.75;2619379;54;20219;-65
2022/04/19 08:36:47;;;;;;;0.30;0.30;;;;;;;8.70;100.00;100898.56;2619636;54;20158;-65
2022/04/19 08:39:17;;;;;;;2.50;1.47;;;;;;;8.43;100.00;100903.31;2620674;54;20156;-65
2022/04/19 08:41:50;;;;;;;2.73;2.33;;;;;;;8.39;100.00;100889.69;2620423;54;20156;-64
2022/04/19 08:44:21;;;;;;;1.50;1.17;;;;;;;8.12;100.00;100908.22;2620263;54;20142;-65
2022/04/19 08:46:56;;;;;;;1.03;0.93;;;;;;;7.48;100.00;100898.22;2620204;47;20148;-65
2022/04/19 08:49:28;;;;;;;0.50;0.50;;;;;;;7.86;100.00;100901.69;2619994;54;20244;-65
2022/04/19 08:51:58;;;;;;;0.17;0.17;;;;;;;9.60;100.00;100905.13;2619977;54;20189;-65
2022/04/19 09:00:09;;;;;;;2.90;1.33;;;;;;;8.02;100.00;100912.16;2620120;54;20154;-64
2022/04/19 09:02:42;;;;;;;1.63;1.53;;;;;;;8.57;100.00;100903.50;2620889;54;20229;-66
2022/04/19 09:05:18;;;;;;;0.43;0.43;;;;;;;9.30;100.00;100902.41;2621088;47;20134;-64
2022/04/19 09:07:49;;;;;;;0.00;0.00;;;;;;;10.84;100.00;100902.56;2619925;54;20140;-66
2022/04/19 09:10:29;;;;;;;2.10;0.63;;;;;;;11.29;100.00;100897.28;2619079;54;20200;-66
2022/04/19 09:13:02;;;;;;;1.10;0.53;;;;;;;10.53;100.00;100899.16;2619594;54;20141;-64
2022/04/19 09:15:37;;;;;;;0.13;0.13;;;;;;;10.06;100.00;100898.34;2620529;54;20241;-64
2022/04/19 09:18:24;;;;;;;0.77;0.77;;;;;;;10.43;100.00;100897.97;2619672;54;20160;-64
2022/04/19 09:20:55;;;;;;;0.00;0.00;;;;;;;11.81;100.00;100892.38;2618833;54;20274;-65
2022/04/19 09:23:26;;;;;;;1.33;1.23;;;;;;;11.39;100.00;100900.16;2618804;47;20140;-65
2022/04/19 09:25:58;;;;;;;0.10;0.10;;;;;;;11.98;100.00;100893.91;2618898;54;20720;-65
2022/04/19 09:28:29;;;;;;;0.10;0.10;;;;;;;11.48;100.00;100894.38;2618840;54;20204;-65
2022/04/19 09:31:02;;;;;;;0.00;0.00;;;;;;;11.47;100.00;100887.56;2618215;54;20225;-65
2022/04/19 09:33:35;;;;;;;1.90;1.27;;;;;;;11.46;100.00;100894.50;2618047;54;20807;-65
2022/04/19 09:36:07;;;;;;;0.10;0.10;;;;;;;11.83;100.00;100894.88;2619046;47;20153;-65
2022/04/19 09:38:46;;;;;;;0.00;0.00;;;;;;;11.86;100.00;100882.53;2618753;54;20167;-65
2022/04/19 09:41:19;;;;;;;0.47;0.33;;;;;;;12.14;100.00;100895.47;2618791;54;20657;-64
2022/04/19 09:44:12;;;;;;;7.13;2.53;;;;;;;11.45;100.00;100900.63;2618704;39;20693;-65
2022/04/19 09:47:04;;;;;;;0.77;0.77;;;;;;;10.09;100.00;100901.59;2618516;54;20145;-65
2022/04/19 09:49:51;;;;;;;1.53;1.43;;;;;;;10.86;100.00;100895.53;2621462;54;20150;-65
2022/04/19 09:52:48;;;;;;;0.00;0.00;;;;;;;11.93;100.00;100898.56;2620081;54;20238;-65
2022/04/19 09:55:20;;;;;;;1.50;0.60;;;;;;;11.62;100.00;100891.81;2619780;31;20639;-65
2022/04/19 09:57:52;;;;;;;0.53;0.53;;;;;;;12.32;100.00;100896.03;2618954;54;20175;-65
2022/04/19 10:00:22;;;;;;;0.77;0.77;;;;;;;12.61;100.00;100900.19;2619577;54;20240;-67
2022/04/19 10:08:21;;;;;;;0.23;0.23;;;;;;;12.22;100.00;100892.38;2618939;54;20147;-64
2022/04/19 10:10:56;;;;;;;2.53;2.43;;;;;;;11.50;100.00;100903.78;2618625;54;20704;-65
2022/04/19 10:13:27;;;;;;;0.10;0.10;;;;;;;12.23;100.00;100898.41;2618204;54;20137;-65
2022/04/19 10:15:57;;;;;;;0.10;0.10;;;;;;;13.00;100.00;100904.53;2618667;54;20172;-64
2022/04/19 10:18:27;;;;;;;0.00;0.00;;;;;;;11.83;100.00;100905.28;2619335;39;20592;-65
2022/04/19 10:21:03;;;;;;;2.73;1.03;;;;;;;10.74;100.00;100904.88;2618651;54;20248;-65
2022/04/19 10:23:37;;;;;;;1.33;0.87;;;;;;;10.22;100.00;100907.81;2619243;54;20148;-65
2022/04/19 10:26:23;;;;;;;0.33;0.33;;;;;;;10.63;100.00;100915.03;2619367;47;20129;-64
2022/04/19 10:28:58;;;;;;;0.23;0.23;;;;;;;11.36;100.00;100893.38;2619460;54;20185;-64
2022/04/19 10:31:31;;;;;;;0.10;0.10;;;;;;;11.86;100.00;100898.13;2619085;54;20145;-65
2022/04/19 10:34:06;;;;;;;0.17;0.17;;;;;;;12.07;100.00;100894.19;2618813;39;20560;-65
2022/04/19 10:36:42;;;;;;;0.00;0.00;;;;;;;12.56;100.00;100904.03;2619143;54;20134;-66
2022/04/19 10:39:26;;;;;;;1.13;1.13;;;;;;;12.44;100.00;100897.84;2618207;54;20705;-64
2022/04/19 10:41:58;;;;;;;2.10;0.77;;;;;;;12.71;100.00;100910.03;2617836;54;20153;-65
2022/04/19 10:44:31;;;;;;;0.13;0.13;;;;;;;12.86;100.00;100914.22;2618075;54;20158;-64
2022/04/19 10:47:15;;;;;;;0.00;0.00;;;;;;;13.01;100.00;100903.59;2618470;39;20574;-65
2022/04/19 10:49:57;;;;;;;0.00;0.00;;;;;;;13.02;100.00;100904.44;2618207;39;20548;-64
2022/04/19 10:53:00;;;;;;;1.13;1.03;;;;;;;13.06;100.00;100905.91;2618089;54;20160;-64
2022/04/19 10:55:32;;;;;;;0.60;0.60;;;;;;;13.35;100.00;100904.81;2618548;54;20164;-64
2022/04/19 10:58:20;;;;;;;5.90;1.57;;;;;;;13.06;100.00;100904.16;2618357;54;20145;-64
2022/04/19 11:00:58;;;;;;;7.50;1.50;;;;;;;13.29;100.00;100907.81;2618492;54;20152;-65
2022/04/19 11:03:54;;;;;;;0.10;0.10;;;;;;;13.34;100.00;100905.75;2618660;54;20142;-64
2022/04/19 11:06:40;;;;;;;0.20;0.20;;;;;;;13.96;100.00;100911.00;2619083;31;20582;-64
2022/04/19 11:09:28;;;;;;;0.17;0.17;;;;;;;13.79;100.00;100906.13;2617634;54;20138;-64
2022/04/19 11:12:12;;;;;;;0.43;0.43;;;;;;;14.33;100.00;100899.56;2618539;54;20289;-64
2022/04/19 11:14:43;;;;;;;1.17;0.53;;;;;;;14.39;100.00;100901.78;2619319;54;20142;-66
2022/04/19 11:17:26;;;;;;;0.10;0.10;;;;;;;13.92;100.00;100901.72;2618590;54;20134;-64
2022/04/19 11:20:00;;;;;;;0.77;0.77;;;;;;;14.00;100.00;100902.00;2619006;54;20141;-64
2022/04/19 11:22:46;;;;;;;0.80;0.80;;;;;;;14.63;100.00;100893.91;2620597;54;20194;-64
2022/04/19 11:25:39;;;;;;;1.17;0.85;;;;;;;14.59;100.00;100896.88;2619078;39;20525;-64
2022/04/19 11:28:33;;;;;;;0.07;0.07;;;;;;;13.49;100.00;100903.84;2618397;46;20289;-65
2022/04/19 11:31:14;;;;;;;0.17;0.17;;;;;;;14.36;100.00;100893.34;2618581;54;20141;-65
2022/04/19 11:33:44;;;;;;;4.60;1.97;;;;;;;14.96;100.00;100886.16;2618708;46;20189;-64
2022/04/19 11:36:18;;;;;;;0.50;0.50;;;;;;;14.82;100.00;100896.81;2619631;39;20759;-64
2022/04/19 11:38:50;;;;;;;0.00;0.00;;;;;;;14.12;100.00;100889.84;2618677;54;20160;-64
2022/04/19 11:46:57;;;;;;;0.30;0.30;;;;;;;14.19;100.00;100894.53;2619120;54;20138;-64
2022/04/19 11:49:34;;;;;;;0.00;0.00;;;;;;;14.57;100.00;100893.53;2619244;39;20534;-64
2022/04/19 11:52:11;;;;;;;0.17;0.17;;;;;;;14.21;91.75;100897.84;2618698;54;20137;-65
2022/04/19 11:54:42;;;;;;;0.87;0.87;;;;;;;13.85;86.45;100901.28;2618968;47;20141;-64
2022/04/19 11:57:15;;;;;;;0.40;0.40;;;;;;;14.62;100.00;100896.63;2618868;54;20175;-64
2022/04/19 11:59:46;;;;;;;0.53;0.53;;;;;;;14.05;82.42;100897.25;2618630;54;20142;-64
2022/04/19 12:02:18;;;;;;;0.10;0.10;;;;;;;14.52;90.45;100896.50;2618807;54;20142;-64
2022/04/19 12:04:54;;;;;;;0.50;0.50;;;;;;;14.78;83.35;100897.16;2619632;39;20554;-64
2022/04/19 12:07:25;;;;;;;0.40;0.40;;;;;;;15.37;81.79;100888.25;2619714;54;20149;-65
2022/04/19 12:09:56;;;;;;;0.00;0.00;;;;;;;15.50;91.79;100893.41;2618991;54;20137;-64
2022/04/19 12:12:29;;;;;;;0.00;0.00;;;;;;;14.55;72.59;100893.66;2618363;54;20150;-64
2022/04/19 12:14:59;;;;;;;0.10;0.10;;;;;;;14.22;83.96;100894.28;2619487;54;20149;-64
2022/04/19 12:17:30;;;;;;;0.00;0.00;;;;;;;14.33;91.63;100896.94;2619685;54;20140;-64
2022/04/19 12:20:04;;;;;;;0.07;0.07;;;;;;;14.42;95.02;100891.09;2619134;54;20156;-64
2022/04/19 12:22:37;;;;;;;0.30;0.30;;;;;;;13.98;85.87;100896.03;2618345;46;20173;-64
2022/04/19 12:25:08;;;;;;;0.17;0.17;;;;;;;14.32;83.81;100892.66;2618429;54;20670;-64
2022/04/19 12:27:41;;;;;;;0.67;0.67;;;;;;;14.52;83.87;100893.88;2618868;54;20661;-64
2022/04/19 12:30:14;;;;;;;0.33;0.33;;;;;;;14.95;79.29;100892.34;2618929;47;20144;-65
2022/04/19 12:32:55;;;;;;;0.00;0.00;;;;;;;14.59;76.50;100886.41;2619339;54;20146;-64
2022/04/19 12:35:28;;;;;;;0.00;0.00;;;;;;;15.30;94.29;100881.81;2619138;54;20140;-64
2022/04/19 12:38:13;;;;;;;0.20;0.20;;;;;;;14.79;95.40;100881.38;2618960;39;20561;-64
2022/04/19 12:40:44;;;;;;;0.77;0.77;;;;;;;13.15;72.54;100883.66;2618801;54;20133;-65
2022/04/19 12:43:18;;;;;;;0.50;0.50;;;;;;;13.52;74.50;100882.81;2618946;54;20149;-66
2022/04/19 12:45:49;;;;;;;0.50;0.50;;;;;;;13.65;94.40;100882.75;2618755;39;20558;-65
2022/04/19 12:48:20;;;;;;;0.10;0.10;;;;;;;14.11;99.94;100880.34;2618377;54;20156;-64
2022/04/19 12:51:01;;;;;;;0.43;0.43;;;;;;;13.77;96.74;100871.47;2618393;54;20134;-64
2022/04/19 12:53:32;;;;;;;0.13;0.13;;;;;;;12.64;79.57;100883.53;2618424;54;20157;-65
2022/04/19 12:56:12;;;;;;;0.70;0.70;;;;;;;12.90;83.20;100889.63;2618473;54;20164;-64
2022/04/19 12:58:49;;;;;;;0.30;0.30;;;;;;;13.20;100.00;100885.00;2619070;47;20140;-64
2022/04/19 13:01:20;;;;;;;0.20;0.20;;;;;;;13.03;100.00;100885.28;2620848;54;20152;-64
2022/04/19 13:03:50;;;;;;;0.00;0.00;;;;;;;13.48;92.60;100891.78;2619327;54;20142;-64
2022/04/19 13:14:30;;;;;;;0.17;0.17;;;;;;;13.15;90.83;100874.06;2618689;54;20149;-64
2022/04/19 13:17:01;;;;;;;0.00;0.00;;;;;;;13.68;100.00;100885.19;2618395;47;20142;-65
2022/04/19 13:19:31;;;;;;;0.53;0.53;;;;;;;13.43;81.74;100879.06;2618446;54;20157;-65
2022/04/19 13:22:01;;;;;;;0.93;0.77;;;;;;;12.74;95.33;100888.97;2618661;39;20550;-65
2022/04/19 13:24:32;;;;;;;0.10;0.10;;;;;;;13.18;98.68;100888.66;2618519;39;20567;-65
2022/04/19 13:27:02;;;;;;;0.10;0.10;;;;;;;13.08;90.68;100884.03;2618221;54;20196;-65
2022/04/19 13:29:36;;;;;;;0.87;0.87;;;;;;;13.46;85.87;100881.44;2619059;54;20701;-64
2022/04/19 13:32:07;;;;;;;0.20;0.20;;;;;;;13.28;89.59;100884.50;2618752;47;20151;-64
2022/04/19 13:34:38;;;;;;;0.00;0.00;;;;;;;13.58;100.00;100885.81;2618380;47;20142;-64
2022/04/19 13:37:08;;;;;;;0.27;0.27;;;;;;;13.90;100.00;100893.16;2618217;54;20684;-65
2022/04/19 13:39:39;;;;;;;1.27;1.27;;;;;;;13.55;92.00;100893.00;2618710;54;20607;-64
2022/04/19 13:42:09;;;;;;;0.43;0.23;;;;;;;13.05;94.33;100899.03;2618642;54;20133;-64
2022/04/19 13:44:42;;;;;;;3.83;3.63;;;;;;;13.38;94.13;100898.53;2618742;54;20134;-64
2022/04/19 13:47:13;;;;;;;0.00;0.00;;;;;;;13.05;100.00;100894.66;2618641;54;20144;-65
2022/04/19 13:49:43;;;;;;;0.00;0.00;;;;;;;13.85;100.00;100900.44;2618249;54;20134;-64
2022/04/19 13:52:13;;;;;;;1.00;0.37;;;;;;;13.05;92.37;100901.63;2619168;54;20133;-64
2022/04/19 13:54:47;;;;;;;0.43;0.43;;;;;;;13.57;100.00;100897.16;2618376;54;20172;-64
2022/04/19 13:57:17;;;;;;;2.37;1.10;;;;;;;13.65;100.00;100890.59;2619186;54;20145;-64
2022/04/19 13:59:51;;;;;;;2.00;1.90;;;;;;;13.23;89.36;100902.19;2618202;54;20204;-65
2022/04/19 14:02:21;;;;;;;0.00;0.00;;;;;;;13.59;100.00;100897.06;2618736;54;20148;-64
2022/04/19 14:04:52;;;;;;;0.00;0.00;;;;;;;13.98;100.00;100901.25;2618905;54;20141;-64
2022/04/19 14:07:22;;;;;;;0.00;0.00;;;;;;;14.25;100.00;100903.66;2618401;54;20164;-64
2022/04/19 14:09:53;;;;;;;0.23;0.23;;;;;;;13.36;84.11;100883.00;2618303;54;20145;-64
2022/04/19 14:12:23;;;;;;;0.40;0.40;;;;;;;13.46;100.00;100893.63;2617985;47;20133;-65
2022/04/19 14:14:56;;;;;;;0.23;0.23;;;;;;;13.73;100.00;100890.88;2618582;47;20140;-64
2022/04/19 14:17:26;;;;;;;0.00;0.00;;;;;;;13.78;100.00;100899.22;2619435;39;20944;-63
2022/04/19 14:19:56;;;;;;;0.00;0.00;;;;;;;13.78;100.00;100904.44;2619132;54;20142;-64
2022/04/19 14:22:27;;;;;;;0.00;0.00;;;;;;;13.78;100.00;100900.06;2619100;54;20152;-64
2022/04/19 14:24:57;;;;;;;0.00;0.00;;;;;;;13.94;100.00;100899.81;2618951;54;20148;-64
2022/04/19 14:27:27;;;;;;;0.00;0.00;;;;;;;13.96;100.00;100903.16;2617887;54;20141;-64
2022/04/19 14:35:27;;;;;;;0.10;0.10;;;;;;;13.91;100.00;100913.06;2617670;54;20718;-67
2022/04/19 14:37:57;;;;;;;0.00;0.00;;;;;;;13.83;100.00;100905.78;2618785;54;20140;-65
2022/04/19 14:40:27;;;;;;;0.20;0.20;;;;;;;13.26;100.00;100902.00;2618533;54;20146;-66
2022/04/19 14:42:57;;;;;;;0.32;0.32;;;;;;;13.38;100.00;100902.00;2619719;39;20585;-64
2022/04/19 14:45:30;;;;;;;0.40;0.40;;;;;;;13.19;100.00;100909.41;2618255;54;20140;-64
2022/04/19 14:48:00;;;;;;;0.00;0.00;;;;;;;13.23;100.00;100907.41;2618702;54;20152;-64
2022/04/19 14:50:31;;;;;;;0.00;0.00;;;;;;;13.48;100.00;100900.41;2618557;54;20141;-65
2022/04/19 14:52:59;;;;;;;0.00;0.00;;;;;;;13.21;100.00;100904.06;2618253;51;20133;-65
2022/04/19 14:55:29;;;;;;;0.00;0.00;;;;;;;13.69;100.00;100900.69;2618913;54;20144;-65
2022/04/19 14:58:00;;;;;;;0.00;0.00;;;;;;;13.67;100.00;100906.97;2619403;54;20146;-65
2022/04/19 15:00:33;;;;;;;0.00;0.00;;;;;;;13.80;100.00;100907.78;2618979;54;20133;-67
2022/04/19 15:03:03;;;;;;;0.00;0.00;;;;;;;13.59;100.00;100910.13;2618456;54;20172;-65
2022/04/19 15:05:33;;;;;;;0.57;0.57;;;;;;;13.30;100.00;100906.06;2619531;54;20142;-64
2022/04/19 15:08:03;;;;;;;0.00;0.00;;;;;;;13.50;100.00;100908.13;2618698;47;20156;-65
2022/04/19 15:10:35;;;;;;;0.00;0.00;;;;;;;13.60;100.00;100902.16;2618918;54;20138;-64
2022/04/19 15:13:16;;;;;;;0.00;0.00;;;;;;;13.60;100.00;100911.75;2619256;54;20149;-64
2022/04/19 15:15:49;;;;;;;0.00;0.00;;;;;;;13.74;100.00;100903.00;2618850;39;20560;-64
2022/04/19 15:18:19;;;;;;;0.00;0.00;;;;;;;13.41;100.00;100908.75;2618344;54;20142;-64
2022/04/19 15:20:50;;;;;;;0.00;0.00;;;;;;;13.49;100.00;100915.13;2618278;54;20141;-64
2022/04/19 15:23:20;;;;;;;0.00;0.00;;;;;;;13.42;100.00;100903.44;2618380;54;20237;-65
2022/04/19 15:25:50;;;;;;;0.00;0.00;;;;;;;13.12;100.00;100915.94;2618719;54;20150;-65
2022/04/19 15:28:21;;;;;;;0.33;0.33;;;;;;;12.77;100.00;100915.66;2618638;47;20197;-66
2022/04/19 15:30:53;;;;;;;1.30;1.00;;;;;;;12.23;100.00;100907.06;2618250;54;20150;-65
2022/04/19 15:33:24;;;;;;;0.00;0.00;;;;;;;12.33;100.00;100918.53;2618845;54;20133;-64
2022/04/19 15:35:54;;;;;;;0.13;0.13;;;;;;;12.89;100.00;100914.00;2618099;54;20138;-65
2022/04/19 15:38:25;;;;;;;0.00;0.00;;;;;;;13.27;100.00;100914.09;2618291;54;20137;-65
2022/04/19 15:40:56;;;;;;;0.73;0.73;;;;;;;13.09;100.00;100916.13;2618854;54;20130;-65
2022/04/19 15:43:26;;;;;;;0.97;0.97;;;;;;;12.90;100.00;100916.50;2618621;47;20701;-64
2022/04/19 15:46:00;;;;;;;0.10;0.10;;;;;;;12.69;100.00;100920.53;2617947;54;20871;-65
2022/04/19 15:48:31;;;;;;;1.80;0.50;;;;;;;12.79;100.00;100924.22;2618519;54;20129;-64
2022/04/19 15:51:02;;;;;;;0.63;0.60;;;;;;;9.86;100.00;100935.69;2618775;47;20133;-65
2022/04/19 15:53:33;;;;;;;0.80;0.80;;;;;;;9.40;100.00;100925.16;2618279;54;20137;-64
2022/04/19 15:56:04;;;;;;;0.60;0.60;;;;;;;8.50;100.00;100942.66;2620308;39;20546;-64
2022/04/19 15:58:34;;;;;;;1.80;1.47;;;;;;;8.45;100.00;100941.13;2620091;47;20149;-64
2022/04/19 16:01:09;;;;;;;0.87;0.87;;;;;;;7.42;100.00;100952.72;2619561;47;20149;-64
2022/04/19 16:03:39;;;;;;;4.37;1.57;;;;;;;7.21;100.00;100951.88;2619901;54;20685;-65
2022/04/19 16:06:10;;;;;;;0.80;0.80;;;;;;;7.73;100.00;100958.22;2619968;54;20212;-65
2022/04/19 16:08:41;;;;;;;2.70;1.43;;;;;;;7.48;100.00;100960.19;2620105;54;20761;-65
2022/04/19 16:11:11;;;;;;;6.03;2.30;;;;;;;7.62;100.00;100957.84;2619741;54;20180;-65
2022/04/19 16:13:42;;;;;;;5.10;1.63;;;;;;;7.65;100.00;100957.72;2619534;54;20157;-66
2022/04/19 16:24:22;;;;;;;2.27;1.20;;;;;;;7.19;100.00;100963.16;2626142;54;20204;-65
2022/04/19 16:26:53;;;;;;;8.00;7.40;;;;;;;6.92;100.00;100971.13;2620379;39;20522;-65
2022/04/19 16:29:23;;;;;;;5.53;2.27;;;;;;;6.79;100.00;100972.53;2620556;47;20737;-64
2022/04/19 16:31:56;;;;;;;1.00;0.97;;;;;;;7.13;100.00;100971.16;2619548;54;20142;-65
2022/04/19 16:34:27;;;;;;;4.33;1.17;;;;;;;8.36;100.00;100979.47;2621518;54;20158;-66
2022/04/19 16:36:57;;;;;;;0.50;0.50;;;;;;;7.97;100.00;100971.78;2623283;54;20193;-65
2022/04/19 16:39:27;;;;;;;1.53;1.10;;;;;;;7.52;100.00;100969.47;2619423;54;20179;-65
2022/04/19 16:41:59;;;;;;;0.77;0.73;;;;;;;8.07;100.00;100973.03;2618737;54;20160;-67
2022/04/19 16:44:29;;;;;;;0.53;0.53;;;;;;;7.66;100.00;100976.63;2619831;47;20142;-64
2022/04/19 16:47:02;;;;;;;1.40;1.30;;;;;;;7.59;100.00;100973.47;2620044;54;20149;-64
2022/04/19 16:49:34;;;;;;;0.20;0.20;;;;;;;7.63;100.00;100980.16;2619762;54;20145;-65
2022/04/19 16:52:04;;;;;;;0.70;0.67;;;;;;;8.33;100.00;100977.88;2619722;39;20531;-65